Airfield :
LOGIN :

Register | Disclaimer

   EN    FR    IT 

 










Legend :    VFR   Marginal VFR   IFR   Intensive IFR   Very Intensive IFR
Visi :
Ceiling :
>= 8 km
>= 3000ft
5 to 8 km
1000 to 3000 ft
1500m to 5 km
500 to 1000 ft
800 to 1500m
200 to 500 ft
< 800m
< 200 ft
Symbols :   Thunderstorms  Fog  Heavy snow  Heavy precipitations  Wind > 20 kt
SIGMETs :     Misc.  Thunderstorms  Icing  Turbulence  Mountain Waves  Volcanic Ashes







- Airport Elevation : 42 ft
- IATA code : LMO


EGQS - Lossiemouth

CURRENT METAR :
  • 181020Z 25013KT 9999 FEW027TCU SCT033 BKN070 18/10 Q1001 NOSIG RMK BLU BLU

EXPIRED METARs :
  • 180950Z 25014KT 9999 FEW029 SCT035 19/11 Q1001 NOSIG RMK BLU BLU
  • 180920Z 24010KT 9999 FEW025 SCT080 18/13 Q1001 NOSIG RMK BLU BLU
  • 180850Z 24007KT 9999 FEW025 SCT070 17/12 Q1001 NOSIG RMK BLU BLU
  • 180820Z 22006KT 9999 FEW021 SCT080 BKN250 16/12 Q1001 TEMPO SCT021 RMK BLU TEMPO WHT
  • 180750Z 22004KT 9999 FEW016 BKN070 BKN250 15/12 Q1001 NOSIG RMK BLU BLU

TAF TAF EGQS
Valid from the 18 at 09:00 until the 19 at 03:00 UTC


180725Z 1809/1903 23008KT 9999 FEW025
PROB40
TEMPO 1809/1821 4000 SHRA SCT020CB
No reported NOTAMs for that airfield.



MET'MAP, your aeronautical weather chart ! - Copyright ORBIFLY December 2007 - Disclaimer

ORBIFLY MET'MAP TEAM :

Programming & Development : Alexandra Zaïnal
Concept & Development : Baudouin d'Aumeries
Co-Development & Prog : Marc-Olivier Méhu
Technical & hardware support : Manuel Goepfert

Contact : metmap@orbifly.com




SOURCES & CREDITS :

   NOAA